Time;durP1;ratioP1;P1;durP2;ratioP2;P2;SDS_P1;SDS_P2;PMS_P1;PMS_P2;Temp;Humidity;BMP_temperature;BMP_pressure;BME280_temperature;BME280_humidity;BME280_pressure;Samples;Min_cycle;Max_cycle;Signal;HPM_P1;HPM_P2
2022/05/14 00:00:22;;;;;;;4.60;1.60;;;11.00;99.90;;;;;;5047375;28;20059;-59
2022/05/14 00:02:48;;;;;;;6.07;1.92;;;10.90;99.90;;;;;;5047974;28;20028;-58
2022/05/14 00:05:16;;;;;;;5.13;1.63;;;10.90;99.90;;;;;;5047708;28;20120;-59
2022/05/14 00:07:42;;;;;;;2.33;1.23;;;10.80;99.90;;;;;;5051162;28;20528;-59
2022/05/14 00:10:08;;;;;;;6.57;1.88;;;10.70;99.90;;;;;;5050793;28;20033;-59
2022/05/14 00:15:18;;;;;;;4.88;1.85;;;10.60;99.90;;;;;;5070648;28;20027;-59
2022/05/14 00:17:46;;;;;;;6.18;2.05;;;10.60;99.90;;;;;;5070829;28;20119;-58
2022/05/14 00:20:13;;;;;;;2.92;1.75;;;10.60;99.90;;;;;;5070591;28;20130;-58
2022/05/14 00:22:39;;;;;;;8.45;2.20;;;10.50;99.90;;;;;;5070634;28;20116;-58
2022/05/14 00:25:05;;;;;;;6.68;2.38;;;10.50;99.90;;;;;;5070080;28;20108;-59
2022/05/14 00:27:31;;;;;;;5.72;1.65;;;10.40;99.90;;;;;;5070118;28;20032;-59
2022/05/14 00:29:56;;;;;;;4.80;2.05;;;10.40;99.90;;;;;;5070504;28;20446;-59
2022/05/14 00:32:22;;;;;;;3.90;2.33;;;10.40;99.90;;;;;;5070514;28;20024;-58
2022/05/14 00:34:48;;;;;;;4.55;2.20;;;10.40;99.90;;;;;;5070646;28;20042;-58
2022/05/14 00:37:14;;;;;;;3.35;2.10;;;10.30;99.90;;;;;;5070465;28;20033;-59
2022/05/14 00:39:39;;;;;;;5.57;2.03;;;10.40;99.90;;;;;;5070217;28;20154;-58
2022/05/14 00:42:06;;;;;;;5.38;1.95;;;10.40;99.90;;;;;;5069880;28;20031;-58
2022/05/14 00:44:31;;;;;;;5.63;2.45;;;10.50;99.90;;;;;;5070485;28;20033;-58
2022/05/14 00:47:09;;;;;;;4.65;1.80;;;10.50;99.90;;;;;;5069831;28;20449;-58
2022/05/14 00:49:35;;;;;;;5.07;2.08;;;10.50;99.90;;;;;;5070252;28;20032;-58
2022/05/14 00:52:01;;;;;;;4.50;2.03;;;10.50;99.90;;;;;;5070296;28;20028;-59
2022/05/14 00:54:40;;;;;;;3.67;1.45;;;10.50;99.90;;;;;;5069984;28;20370;-58
2022/05/14 00:57:11;;;;;;;3.28;1.45;;;10.40;99.90;;;;;;5069778;28;20054;-58
2022/05/14 00:59:37;;;;;;;2.88;1.58;;;10.40;99.90;;;;;;5070116;28;20110;-58
2022/05/14 01:02:07;;;;;;;4.45;1.63;;;10.40;99.90;;;;;;5068560;28;20055;-58
2022/05/14 01:04:34;;;;;;;8.95;1.92;;;10.40;99.90;;;;;;5066614;28;20020;-58
2022/05/14 01:07:07;;;;;;;2.95;1.75;;;10.30;99.90;;;;;;5067518;28;20059;-58
2022/05/14 01:09:35;;;;;;;3.15;1.33;;;10.30;99.90;;;;;;5069981;28;20159;-58
2022/05/14 01:12:00;;;;;;;3.47;1.50;;;10.30;99.90;;;;;;5069827;28;20039;-58
2022/05/14 01:14:26;;;;;;;6.28;1.85;;;10.30;99.90;;;;;;5070045;28;20032;-58
2022/05/14 01:16:52;;;;;;;2.78;1.67;;;10.20;99.90;;;;;;5069766;28;20398;-58
2022/05/14 01:19:18;;;;;;;3.05;2.22;;;10.20;99.90;;;;;;5069805;28;20103;-59
2022/05/14 01:21:52;;;;;;;3.45;1.48;;;10.20;99.90;;;;;;5070029;28;20032;-59
2022/05/14 01:27:33;;;;;;;4.78;1.48;;;10.10;99.90;;;;;;5069595;28;20059;-58
2022/05/14 01:29:59;;;;;;;5.13;1.83;;;10.20;99.90;;;;;;5051728;28;20379;-59
2022/05/14 01:32:24;;;;;;;6.78;1.45;;;10.10;99.90;;;;;;5069815;28;20488;-58
2022/05/14 01:34:50;;;;;;;3.17;1.33;;;10.10;99.90;;;;;;5069720;28;20097;-58
2022/05/14 01:37:16;;;;;;;2.30;1.23;;;10.10;99.90;;;;;;5072802;28;20478;-58
2022/05/14 01:39:42;;;;;;;2.90;1.20;;;10.10;99.90;;;;;;5073663;28;20355;-58
2022/05/14 01:42:08;;;;;;;4.03;1.55;;;10.10;99.90;;;;;;5073349;28;20029;-58
2022/05/14 01:44:34;;;;;;;3.25;1.23;;;10.10;99.90;;;;;;5073746;28;20067;-58
2022/05/14 01:46:59;;;;;;;4.03;1.30;;;10.10;99.90;;;;;;5057718;28;20053;-59
2022/05/14 01:49:25;;;;;;;3.53;1.70;;;10.10;99.90;;;;;;5060593;28;20029;-58
2022/05/14 01:51:50;;;;;;;5.88;1.50;;;10.10;99.90;;;;;;5068646;28;20119;-58
2022/05/14 01:54:16;;;;;;;2.47;1.45;;;10.10;99.90;;;;;;5053219;28;20137;-58
2022/05/14 01:56:42;;;;;;;2.20;1.95;;;10.10;99.90;;;;;;5050219;28;20489;-59
2022/05/14 01:59:09;;;;;;;3.42;1.63;;;10.10;99.90;;;;;;5050168;28;20021;-58
2022/05/14 02:01:36;;;;;;;1.60;1.42;;;10.10;99.90;;;;;;5050003;28;20112;-59
2022/05/14 02:04:13;;;;;;;1.75;1.42;;;10.00;99.90;;;;;;5050728;28;20041;-57
2022/05/14 02:06:40;;;;;;;1.58;1.33;;;10.00;99.90;;;;;;5053064;28;20043;-58
2022/05/14 02:09:08;;;;;;;9.68;1.83;;;9.90;99.90;;;;;;5053255;28;20021;-57
2022/05/14 02:11:35;;;;;;;3.83;1.13;;;9.90;99.90;;;;;;5061375;28;20031;-57
2022/05/14 02:14:01;;;;;;;6.93;1.85;;;9.80;99.90;;;;;;5073256;28;20082;-57
2022/05/14 02:16:26;;;;;;;3.08;1.30;;;9.80;99.90;;;;;;5072781;28;20040;-57
2022/05/14 02:18:52;;;;;;;3.40;1.35;;;9.70;99.90;;;;;;5072959;28;20131;-57
2022/05/14 02:21:24;;;;;;;3.13;1.23;;;9.70;99.90;;;;;;5072870;28;20103;-57
2022/05/14 02:23:51;;;;;;;2.38;1.50;;;9.70;99.90;;;;;;5072795;28;20024;-57
2022/05/14 02:26:17;;;;;;;4.15;1.48;;;9.70;99.90;;;;;;5072470;28;20081;-57
2022/05/14 02:28:43;;;;;;;8.15;2.33;;;9.60;99.90;;;;;;5072931;28;20024;-57
2022/05/14 02:31:09;;;;;;;3.15;1.20;;;9.60;99.90;;;;;;5072427;28;20063;-57
2022/05/14 02:33:36;;;;;;;2.78;1.42;;;9.60;99.90;;;;;;5072599;28;20052;-58
2022/05/14 02:36:04;;;;;;;2.13;1.45;;;9.50;99.90;;;;;;5072592;28;20032;-57
2022/05/14 02:38:31;;;;;;;3.95;1.60;;;9.50;99.90;;;;;;5072571;28;20020;-58
2022/05/14 02:40:57;;;;;;;6.28;1.27;;;9.50;99.90;;;;;;5072280;28;20025;-57
2022/05/14 02:43:24;;;;;;;4.75;1.77;;;9.50;99.90;;;;;;5072674;28;20040;-55
2022/05/14 02:45:49;;;;;;;3.17;1.65;;;9.50;99.90;;;;;;5072138;28;20066;-57
2022/05/14 02:48:15;;;;;;;3.92;1.42;;;9.50;99.90;;;;;;5071929;28;20053;-57
2022/05/14 02:50:41;;;;;;;3.63;1.40;;;9.40;99.90;;;;;;5070162;28;20066;-58
2022/05/14 02:53:08;;;;;;;4.07;1.67;;;9.40;99.90;;;;;;5069211;28;20037;-57
2022/05/14 02:55:34;;;;;;;3.72;1.42;;;9.50;99.90;;;;;;5069290;28;20028;-57
2022/05/14 02:57:59;;;;;;;3.45;1.40;;;9.40;99.90;;;;;;5068806;28;20092;-57
2022/05/14 03:00:26;;;;;;;3.20;1.45;;;9.50;99.90;;;;;;5070841;28;20039;-57
2022/05/14 03:02:52;;;;;;;3.08;1.33;;;9.50;99.90;;;;;;5071954;28;20453;-56
2022/05/14 03:05:20;;;;;;;5.53;1.20;;;9.40;99.90;;;;;;5072005;28;20465;-56
2022/05/14 03:07:47;;;;;;;4.30;1.67;;;9.40;99.90;;;;;;5072018;28;20036;-57
2022/05/14 03:10:13;;;;;;;5.35;1.45;;;9.40;99.90;;;;;;5071934;28;20115;-56
2022/05/14 03:12:39;;;;;;;3.03;1.35;;;9.50;99.90;;;;;;5071629;28;20046;-57
2022/05/14 03:15:07;;;;;;;4.65;1.80;;;9.50;99.90;;;;;;5072089;28;20056;-57
2022/05/14 03:17:35;;;;;;;3.92;1.60;;;9.50;99.90;;;;;;5071734;28;20017;-56
2022/05/14 03:20:06;;;;;;;3.85;1.73;;;9.50;99.90;;;;;;5071944;28;20073;-57
2022/05/14 03:22:32;;;;;;;3.42;1.48;;;9.50;99.90;;;;;;5071679;28;20066;-58
2022/05/14 03:24:58;;;;;;;2.25;1.33;;;9.40;99.90;;;;;;5071857;28;20071;-57
2022/05/14 03:27:24;;;;;;;3.40;1.45;;;9.40;99.90;;;;;;5071580;28;20079;-57
2022/05/14 03:29:50;;;;;;;2.78;1.20;;;9.40;99.90;;;;;;5071527;28;20029;-57
2022/05/14 03:32:15;;;;;;;4.28;1.75;;;9.40;99.90;;;;;;5071613;28;20025;-58
2022/05/14 03:34:41;;;;;;;4.55;1.77;;;9.40;99.90;;;;;;5071479;28;20086;-57
2022/05/14 03:37:06;;;;;;;2.17;1.30;;;9.40;99.90;;;;;;5071454;28;20028;-57
2022/05/14 03:39:32;;;;;;;2.85;1.48;;;9.40;99.90;;;;;;5071556;28;20033;-57
2022/05/14 03:41:58;;;;;;;3.20;1.70;;;9.40;99.90;;;;;;5070002;28;20034;-57
2022/05/14 03:44:24;;;;;;;3.28;1.20;;;9.40;99.90;;;;;;5068910;28;20024;-57
2022/05/14 03:46:49;;;;;;;2.40;1.42;;;9.30;99.90;;;;;;5070815;28;20044;-57
2022/05/14 03:49:15;;;;;;;3.22;1.42;;;9.30;99.90;;;;;;5071129;28;20051;-57
2022/05/14 03:51:41;;;;;;;2.08;1.25;;;9.30;99.90;;;;;;5071022;28;20440;-58
2022/05/14 03:54:06;;;;;;;3.20;1.55;;;9.20;99.90;;;;;;5071078;28;20020;-57
2022/05/14 03:56:32;;;;;;;5.47;1.90;;;9.10;99.90;;;;;;5071125;28;20028;-56
2022/05/14 03:58:58;;;;;;;1.35;1.10;;;9.00;99.90;;;;;;5067015;28;20609;-56
2022/05/14 04:01:24;;;;;;;2.28;1.40;;;8.90;99.90;;;;;;5070699;28;20020;-57
2022/05/14 04:03:49;;;;;;;4.88;1.80;;;8.80;99.90;;;;;;5070968;28;20057;-56
2022/05/14 04:06:15;;;;;;;3.03;2.00;;;8.80;99.90;;;;;;5070672;28;20077;-58
2022/05/14 04:08:41;;;;;;;4.85;1.90;;;8.70;99.90;;;;;;5052708;28;20021;-55
2022/05/14 04:11:07;;;;;;;6.35;2.00;;;8.70;99.90;;;;;;5070339;28;20035;-56
2022/05/14 04:13:33;;;;;;;4.53;1.65;;;8.60;99.90;;;;;;5070710;28;20119;-56
2022/05/14 04:15:59;;;;;;;4.85;1.92;;;8.60;99.90;;;;;;5069236;28;20500;-57
2022/05/14 04:18:25;;;;;;;5.43;2.17;;;8.50;99.90;;;;;;5067675;28;20028;-58
2022/05/14 04:20:55;;;;;;;4.40;1.65;;;8.40;99.90;;;;;;5068428;28;20048;-58
2022/05/14 04:23:22;;;;;;;3.13;2.10;;;8.40;99.90;;;;;;5070567;28;20028;-56
2022/05/14 04:25:50;;;;;;;5.25;2.00;;;8.40;99.90;;;;;;5070037;28;20501;-57
2022/05/14 04:28:16;;;;;;;5.05;1.95;;;8.20;99.90;;;;;;5070453;28;20535;-56
2022/05/14 04:30:42;;;;;;;5.72;2.20;;;8.20;99.90;;;;;;5069482;28;20024;-57
2022/05/14 04:33:08;;;;;;;6.32;2.17;;;8.10;99.90;;;;;;5067098;28;20028;-58
2022/05/14 04:35:34;;;;;;;6.47;2.85;;;8.10;99.90;;;;;;5067535;28;20085;-58
2022/05/14 04:37:59;;;;;;;3.63;2.00;;;8.10;99.90;;;;;;5068650;28;20162;-57
2022/05/14 04:40:25;;;;;;;3.67;2.15;;;8.10;99.90;;;;;;5070191;28;20059;-57
2022/05/14 04:42:51;;;;;;;5.82;1.83;;;8.10;99.90;;;;;;5070040;28;20028;-56
2022/05/14 04:45:16;;;;;;;3.38;1.88;;;8.10;99.90;;;;;;5070129;28;20414;-57
2022/05/14 04:47:42;;;;;;;5.78;2.05;;;8.10;99.90;;;;;;5069654;28;20060;-59
2022/05/14 04:50:09;;;;;;;4.03;1.92;;;8.20;99.90;;;;;;5070070;28;20477;-57
2022/05/14 04:52:35;;;;;;;9.57;2.17;;;8.20;99.90;;;;;;5070050;28;20028;-56
2022/05/14 04:55:00;;;;;;;5.82;1.98;;;8.30;99.90;;;;;;5070128;28;20392;-57
2022/05/14 04:57:26;;;;;;;3.22;1.40;;;8.40;99.90;;;;;;5070082;28;20028;-57
2022/05/14 04:59:53;;;;;;;3.05;1.80;;;8.60;99.90;;;;;;5069964;28;20028;-57
2022/05/14 05:05:04;;;;;;;2.30;1.48;;;8.80;99.90;;;;;;5066908;28;20039;-59
2022/05/14 05:07:30;;;;;;;4.45;1.90;;;8.90;99.90;;;;;;5068135;28;20205;-57
2022/05/14 05:09:55;;;;;;;6.13;2.13;;;9.00;99.90;;;;;;5069744;28;20561;-56
2022/05/14 05:12:21;;;;;;;5.72;1.95;;;9.10;99.90;;;;;;5066831;28;20020;-57
2022/05/14 05:14:47;;;;;;;4.13;2.08;;;9.10;99.90;;;;;;5066654;28;20032;-58
2022/05/14 05:17:12;;;;;;;2.03;1.52;;;9.10;99.90;;;;;;5066849;28;20416;-56
2022/05/14 05:19:38;;;;;;;3.25;1.88;;;9.00;99.90;;;;;;5066605;28;20028;-57
2022/05/14 05:22:04;;;;;;;3.65;1.90;;;9.10;99.90;;;;;;5066386;28;20116;-57
2022/05/14 05:24:30;;;;;;;7.53;2.72;;;9.20;99.90;;;;;;5066511;28;20035;-58
2022/05/14 05:26:55;;;;;;;5.15;2.17;;;9.40;99.90;;;;;;5067720;28;20028;-55
2022/05/14 05:29:21;;;;;;;3.40;2.00;;;9.40;99.90;;;;;;5069727;28;20056;-57
2022/05/14 05:31:47;;;;;;;7.40;2.78;;;9.50;99.90;;;;;;5067190;28;20040;-57
2022/05/14 05:34:12;;;;;;;3.10;2.17;;;9.70;99.90;;;;;;5066517;28;20106;-57
2022/05/14 05:36:38;;;;;;;6.43;2.65;;;9.80;99.90;;;;;;5067841;28;20107;-57
2022/05/14 05:39:04;;;;;;;3.20;2.45;;;9.80;99.90;;;;;;5069658;28;20028;-56
2022/05/14 05:41:30;;;;;;;4.25;1.98;;;9.90;99.90;;;;;;5058394;28;20052;-56
2022/05/14 05:43:55;;;;;;;7.60;2.35;;;10.00;99.90;;;;;;5046431;28;20075;-57
2022/05/14 05:46:21;;;;;;;6.30;2.22;;;10.10;99.90;;;;;;5046445;28;20041;-58
2022/05/14 05:48:47;;;;;;;5.03;2.10;;;10.20;99.90;;;;;;5046125;28;20425;-58
2022/05/14 05:51:12;;;;;;;5.72;2.63;;;10.30;99.90;;;;;;5046286;28;20099;-56
2022/05/14 05:59:07;;;;;;;6.10;2.60;;;10.70;99.90;;;;;;5049329;28;20192;-58
2022/05/14 06:01:34;;;;;;;8.13;2.15;;;10.90;99.90;;;;;;5047461;28;20112;-57
2022/05/14 06:04:00;;;;;;;5.03;1.95;;;11.00;99.90;;;;;;5046563;28;20176;-58
2022/05/14 06:06:26;;;;;;;3.42;2.10;;;11.20;99.90;;;;;;5048185;28;20096;-57
2022/05/14 06:08:53;;;;;;;4.28;1.70;;;11.40;99.90;;;;;;5046078;28;20493;-58
2022/05/14 06:11:18;;;;;;;3.00;2.20;;;11.60;99.90;;;;;;5053985;28;20029;-58
2022/05/14 06:13:44;;;;;;;3.38;2.08;;;11.70;99.90;;;;;;5069403;28;20031;-58
2022/05/14 06:16:11;;;;;;;6.47;1.83;;;11.90;99.90;;;;;;5069111;28;20373;-59
2022/05/14 06:18:37;;;;;;;5.15;2.30;;;12.00;99.90;;;;;;5068993;28;20485;-58
2022/05/14 06:21:06;;;;;;;5.15;2.05;;;12.10;99.90;;;;;;5068813;28;20187;-58
2022/05/14 06:23:33;;;;;;;3.75;2.03;;;12.30;99.90;;;;;;5069437;28;20036;-59
2022/05/14 06:25:59;;;;;;;5.45;1.50;;;12.40;99.90;;;;;;5069393;28;20394;-59
2022/05/14 06:28:25;;;;;;;5.30;2.00;;;12.50;99.90;;;;;;5070688;28;20098;-58
2022/05/14 06:30:51;;;;;;;4.57;2.03;;;12.70;99.90;;;;;;5072622;28;20433;-58
2022/05/14 06:33:18;;;;;;;8.98;2.92;;;12.90;99.90;;;;;;5072364;28;20116;-59
2022/05/14 06:35:45;;;;;;;2.50;1.30;;;13.00;99.90;;;;;;5072706;28;20035;-58
2022/05/14 06:38:10;;;;;;;6.78;2.35;;;13.20;99.90;;;;;;5072421;28;20458;-58
2022/05/14 06:40:37;;;;;;;5.55;1.60;;;13.40;99.90;;;;;;5072403;28;20545;-59
2022/05/14 06:43:04;;;;;;;3.50;1.75;;;13.50;99.90;;;;;;5072227;28;20035;-59
2022/05/14 06:45:30;;;;;;;6.05;1.80;;;13.60;99.90;;;;;;5072604;28;20016;-59
2022/05/14 06:47:57;;;;;;;5.32;1.48;;;13.80;99.90;;;;;;5072212;28;20059;-59
2022/05/14 06:50:24;;;;;;;4.38;1.67;;;13.90;99.90;;;;;;5072342;28;20114;-59
2022/05/14 06:52:52;;;;;;;5.35;2.42;;;13.80;99.90;;;;;;5072226;28;20036;-59
2022/05/14 06:55:22;;;;;;;3.42;1.30;;;13.70;99.90;;;;;;5072561;28;20021;-59
2022/05/14 06:57:50;;;;;;;7.53;1.83;;;13.80;99.90;;;;;;5071943;28;20551;-59
2022/05/14 07:00:16;;;;;;;7.72;1.70;;;13.80;99.90;;;;;;5072436;28;20028;-59
2022/05/14 07:02:43;;;;;;;5.45;1.75;;;13.90;99.90;;;;;;5069009;28;20390;-59
2022/05/14 07:07:54;;;;;;;5.07;1.67;;;14.00;99.90;;;;;;5070750;28;20099;-59
2022/05/14 07:10:20;;;;;;;2.70;1.35;;;14.00;99.90;;;;;;5071941;28;20025;-59
2022/05/14 07:12:46;;;;;;;7.55;1.85;;;14.00;99.90;;;;;;5071676;28;20063;-59
2022/05/14 07:15:12;;;;;;;6.75;1.67;;;14.20;99.90;;;;;;5071837;28;20052;-59
2022/05/14 07:17:38;;;;;;;5.38;1.60;;;14.50;99.90;;;;;;5071629;28;20044;-59
2022/05/14 07:20:05;;;;;;;5.88;2.00;;;14.80;99.90;;;;;;5071662;28;20449;-59
2022/05/14 07:22:31;;;;;;;2.03;1.25;;;14.90;99.90;;;;;;5071643;28;20036;-59
2022/05/14 07:24:57;;;;;;;5.82;2.05;;;14.80;99.90;;;;;;5072038;28;20058;-59
2022/05/14 07:27:22;;;;;;;3.58;1.58;;;14.80;99.90;;;;;;5071489;28;20048;-59
2022/05/14 07:29:48;;;;;;;5.20;1.80;;;14.90;99.90;;;;;;5071577;28;20020;-59
2022/05/14 07:32:17;;;;;;;7.30;1.52;;;15.50;99.90;;;;;;5071381;28;20028;-59
2022/05/14 07:34:43;;;;;;;4.22;1.83;;;15.40;99.90;;;;;;5070475;28;20029;-59
2022/05/14 07:37:14;;;;;;;3.70;1.40;;;15.70;99.90;;;;;;5071468;28;20035;-59
2022/05/14 07:39:45;;;;;;;4.07;1.38;;;16.30;99.90;;;;;;5071366;28;20024;-59
2022/05/14 07:42:17;;;;;;;5.18;2.15;;;17.10;99.90;;;;;;5071206;28;20041;-60
2022/05/14 07:44:46;;;;;;;8.13;2.33;;;18.00;99.90;;;;;;5068007;28;20017;-60
2022/05/14 07:47:13;;;;;;;6.93;2.10;;;18.20;99.90;;;;;;5070897;28;20133;-60
2022/05/14 07:49:42;;;;;;;5.70;1.85;;;18.90;99.80;;;;;;5071600;28;20115;-60
2022/05/14 07:52:07;;;;;;;9.00;2.03;;;19.80;98.30;;;;;;5070999;28;20070;-59
2022/05/14 07:54:33;;;;;;;5.32;2.25;;;20.40;97.40;;;;;;5071180;28;20102;-59
2022/05/14 07:57:00;;;;;;;5.05;1.70;;;20.50;96.60;;;;;;5071024;28;20029;-60
2022/05/14 07:59:26;;;;;;;6.90;1.98;;;20.70;96.20;;;;;;5070822;28;20115;-59
2022/05/14 08:01:52;;;;;;;2.55;1.75;;;21.00;95.30;;;;;;5070798;28;20075;-60
2022/05/14 08:04:18;;;;;;;4.35;1.67;;;21.10;95.50;;;;;;5071139;28;20024;-59
2022/05/14 08:06:43;;;;;;;3.10;1.55;;;20.80;94.20;;;;;;5070894;28;20075;-60
2022/05/14 08:09:09;;;;;;;5.65;2.72;;;21.30;94.50;;;;;;5068995;28;20029;-60
2022/05/14 08:11:35;;;;;;;5.30;2.42;;;21.10;94.00;;;;;;5068943;28;20025;-60
2022/05/14 08:14:01;;;;;;;5.93;2.25;;;21.40;93.90;;;;;;5070562;28;20021;-60
2022/05/14 08:16:27;;;;;;;6.38;2.63;;;21.90;91.80;;;;;;5070664;28;20024;-60
2022/05/14 08:18:52;;;;;;;3.65;2.00;;;22.50;90.80;;;;;;5070590;28;20055;-60
2022/05/14 08:26:52;;;;;;;3.03;1.83;;;23.30;85.40;;;;;;5067158;28;20566;-60
2022/05/14 08:29:19;;;;;;;7.13;1.80;;;23.30;83.40;;;;;;5067482;28;20039;-60
2022/05/14 08:31:45;;;;;;;4.63;2.00;;;23.70;80.20;;;;;;5067110;28;20397;-60
2022/05/14 08:34:10;;;;;;;5.32;2.40;;;23.90;78.50;;;;;;5067357;28;20088;-59
2022/05/14 08:36:36;;;;;;;5.00;1.58;;;24.00;78.70;;;;;;5067278;28;20036;-61
2022/05/14 08:39:03;;;;;;;4.53;1.33;;;24.40;76.30;;;;;;5067074;28;20081;-60
2022/05/14 08:41:29;;;;;;;6.05;1.30;;;24.60;70.70;;;;;;5066887;28;20032;-58
2022/05/14 08:44:00;;;;;;;2.60;1.30;;;25.10;70.90;;;;;;5067311;28;20446;-60
2022/05/14 08:46:27;;;;;;;2.85;0.93;;;24.80;68.20;;;;;;5062168;28;20531;-60
2022/05/14 08:49:02;;;;;;;1.95;1.10;;;25.10;67.70;;;;;;5047498;28;20060;-58
2022/05/14 08:51:32;;;;;;;2.92;1.10;;;25.10;66.40;;;;;;5062969;28;20074;-58
2022/05/14 08:53:59;;;;;;;3.55;1.30;;;25.50;66.30;;;;;;5058583;28;20478;-59
2022/05/14 08:56:29;;;;;;;2.03;1.20;;;25.70;65.00;;;;;;5051588;28;20115;-59
2022/05/14 08:59:12;;;;;;;3.08;1.15;;;26.00;60.50;;;;;;5066949;28;20025;-59
2022/05/14 09:01:41;;;;;;;2.33;0.90;;;26.50;58.90;;;;;;5066721;28;20024;-59
2022/05/14 09:04:10;;;;;;;2.60;1.35;;;26.70;56.70;;;;;;5066420;28;20100;-59
2022/05/14 09:06:38;;;;;;;3.10;1.40;;;27.00;55.40;;;;;;5066479;28;20090;-59
2022/05/14 09:09:06;;;;;;;5.13;1.55;;;27.10;53.70;;;;;;5066663;28;20041;-59
2022/05/14 09:11:52;;;;;;;3.35;1.20;;;27.50;53.10;;;;;;5066297;28;20028;-59
2022/05/14 09:14:26;;;;;;;4.22;1.38;;;28.10;51.20;;;;;;5066356;28;20428;-59
2022/05/14 09:17:03;;;;;;;3.08;1.02;;;28.40;49.00;;;;;;5066805;28;20047;-59
2022/05/14 09:19:38;;;;;;;3.28;1.10;;;28.40;48.80;;;;;;5066784;28;20485;-59
2022/05/14 09:22:35;;;;;;;3.40;0.95;;;28.20;45.70;;;;;;5066918;28;20102;-59
2022/05/14 09:25:25;;;;;;;6.18;2.08;;;28.90;44.90;;;;;;5044950;28;20124;-59
2022/05/14 09:28:00;;;;;;;2.97;1.15;;;28.80;42.00;;;;;;5066199;28;20040;-59
2022/05/14 09:30:37;;;;;;;3.08;1.00;;;28.90;41.60;;;;;;5066586;28;20029;-59
2022/05/14 09:33:04;;;;;;;3.15;1.17;;;30.00;40.00;;;;;;5066437;28;20032;-59
2022/05/14 09:35:33;;;;;;;4.13;1.05;;;30.50;38.90;;;;;;5066508;28;20055;-59
2022/05/14 09:38:12;;;;;;;3.33;1.15;;;31.30;34.30;;;;;;5066559;28;20028;-59
2022/05/14 09:40:39;;;;;;;2.22;1.00;;;31.90;34.20;;;;;;5066582;28;20081;-59
2022/05/14 09:43:15;;;;;;;4.35;1.42;;;32.10;32.60;;;;;;5066092;28;20021;-59
2022/05/14 09:45:44;;;;;;;2.80;1.13;;;31.50;31.00;;;;;;5066371;28;20474;-60
2022/05/14 09:48:17;;;;;;;6.80;1.55;;;32.80;30.20;;;;;;5065970;28;20080;-59
2022/05/14 09:50:51;;;;;;;2.45;1.20;;;32.20;31.10;;;;;;5045021;28;20392;-59
2022/05/14 09:53:32;;;;;;;2.95;1.10;;;33.10;27.60;;;;;;5066464;28;20047;-59
2022/05/14 09:56:10;;;;;;;2.22;0.63;;;32.80;26.80;;;;;;5066291;28;20065;-59
2022/05/14 09:59:01;;;;;;;3.17;1.00;;;33.80;27.70;;;;;;5069626;28;20036;-59
2022/05/14 10:01:51;;;;;;;4.13;1.10;;;33.80;25.60;;;;;;5069838;28;20127;-59
2022/05/14 10:04:58;;;;;;;2.47;1.30;;;34.60;24.80;;;;;;5070002;28;20060;-59
2022/05/14 10:07:54;;;;;;;3.67;1.10;;;33.90;23.80;;;;;;4987586;28;20030;-59
2022/05/14 10:10:36;;;;;;;2.10;1.08;;;33.20;23.90;;;;;;5069886;28;20028;-58
2022/05/14 10:13:21;;;;;;;2.72;1.10;;;35.10;23.30;;;;;;5049915;28;20105;-59
2022/05/14 10:16:06;;;;;;;3.75;0.95;;;34.30;22.60;;;;;;5050051;28;20043;-59
2022/05/14 10:19:13;;;;;;;2.40;1.02;;;35.20;21.50;;;;;;5049462;28;20083;-59
2022/05/14 10:22:01;;;;;;;2.33;0.95;;;35.00;20.70;;;;;;4987846;28;20511;-59
2022/05/14 10:27:29;;;;;;;3.78;1.13;;;35.50;20.10;;;;;;5049803;28;20667;-59
2022/05/14 10:29:58;;;;;;;2.70;1.02;;;36.70;19.90;;;;;;5049602;28;20465;-59
2022/05/14 10:32:30;;;;;;;2.63;0.95;;;36.50;19.50;;;;;;5049769;28;20029;-59
2022/05/14 10:35:09;;;;;;;1.77;0.90;;;36.60;18.70;;;;;;5049461;28;20021;-59
2022/05/14 10:37:44;;;;;;;2.42;1.48;;;37.10;19.30;;;;;;5049526;28;20041;-58
2022/05/14 10:40:43;;;;;;;3.10;1.05;;;36.10;18.10;;;;;;5049343;28;20029;-60
2022/05/14 10:43:31;;;;;;;2.75;1.20;;;37.30;18.60;;;;;;5049384;28;20033;-59
2022/05/14 10:45:58;;;;;;;4.43;1.15;;;37.00;17.30;;;;;;5049198;28;20052;-60
2022/05/14 10:48:39;;;;;;;2.05;1.00;;;36.70;17.20;;;;;;5049023;28;20419;-60
2022/05/14 10:51:18;;;;;;;2.70;0.90;;;37.50;16.60;;;;;;5049267;28;20104;-59
2022/05/14 10:53:44;;;;;;;3.78;1.38;;;37.10;16.80;;;;;;5049248;28;20021;-59
2022/05/14 10:56:21;;;;;;;2.97;1.17;;;38.20;16.30;;;;;;5048698;28;20029;-59
2022/05/14 10:58:57;;;;;;;2.40;1.17;;;37.30;15.80;;;;;;5048999;28;20056;-59
2022/05/14 11:01:34;;;;;;;2.13;1.40;;;38.70;16.70;;;;;;5048724;28;20024;-59
2022/05/14 11:04:19;;;;;;;3.50;1.25;;;38.90;15.00;;;;;;5048826;28;20067;-59
2022/05/14 11:06:51;;;;;;;3.33;1.30;;;37.40;15.60;;;;;;5049285;28;20102;-59
2022/05/14 11:09:23;;;;;;;3.58;1.45;;;37.20;16.40;;;;;;5047041;28;20402;-63
2022/05/14 11:11:55;;;;;;;3.03;1.10;;;37.20;15.80;;;;;;5065474;28;20057;-60
2022/05/14 11:14:21;;;;;;;4.22;1.10;;;38.80;14.80;;;;;;5063992;28;20111;-59
2022/05/14 11:16:51;;;;;;;4.28;1.35;;;37.90;15.40;;;;;;5068408;28;20044;-60
2022/05/14 11:19:32;;;;;;;2.30;0.77;;;37.80;16.50;;;;;;5068249;28;20088;-60
2022/05/14 11:21:58;;;;;;;1.67;0.80;;;38.70;15.20;;;;;;5068566;28;20035;-61
2022/05/14 11:24:37;;;;;;;3.85;1.27;;;37.90;14.80;;;;;;5068351;28;20016;-62
2022/05/14 11:27:04;;;;;;;7.40;2.63;;;38.70;14.60;;;;;;5068368;28;20037;-63
2022/05/14 11:29:54;;;;;;;2.15;0.98;;;38.60;15.60;;;;;;5065955;28;20028;-62
2022/05/14 11:32:21;;;;;;;2.25;1.13;;;39.40;15.50;;;;;;5066269;28;20062;-62
2022/05/14 11:34:58;;;;;;;1.70;1.08;;;38.60;15.20;;;;;;5068545;28;20032;-62
2022/05/14 11:37:35;;;;;;;1.67;0.80;;;37.50;13.60;;;;;;5068161;28;20420;-62
2022/05/14 11:40:16;;;;;;;3.03;0.88;;;36.90;14.90;;;;;;5068465;28;20024;-62
2022/05/14 11:42:43;;;;;;;4.38;1.60;;;38.10;14.50;;;;;;5068072;28;20024;-62
2022/05/14 11:45:17;;;;;;;5.65;1.40;;;37.90;14.50;;;;;;5068541;28;20078;-62
2022/05/14 11:48:04;;;;;;;2.80;1.08;;;37.40;14.60;;;;;;5068089;28;20131;-61
2022/05/14 11:51:11;;;;;;;5.43;1.20;;;37.80;14.80;;;;;;5065574;28;20416;-62
2022/05/14 11:53:46;;;;;;;2.42;1.38;;;37.10;14.50;;;;;;5065656;28;20121;-61
2022/05/14 11:56:19;;;;;;;2.60;1.15;;;38.50;14.30;;;;;;5068134;28;20107;-63
2022/05/14 11:58:55;;;;;;;3.38;1.23;;;38.40;14.90;;;;;;5068107;28;20515;-63
2022/05/14 12:01:24;;;;;;;3.15;1.27;;;38.10;14.20;;;;;;5050605;28;20435;-63
2022/05/14 12:03:52;;;;;;;2.42;1.23;;;36.70;14.30;;;;;;5067739;28;20056;-63
2022/05/14 12:06:55;;;;;;;3.10;1.27;;;36.20;14.60;;;;;;5067263;28;20775;-63
2022/05/14 12:09:38;;;;;;;3.95;1.20;;;35.90;15.30;;;;;;5067648;28;20123;-62
2022/05/14 12:12:09;;;;;;;5.85;1.25;;;36.70;15.60;;;;;;5065468;28;20036;-62
2022/05/14 12:14:36;;;;;;;3.28;1.42;;;36.70;14.30;;;;;;5067209;28;20481;-62
2022/05/14 12:17:06;;;;;;;1.05;0.70;;;36.30;14.70;;;;;;5067533;28;20105;-63
2022/05/14 12:19:37;;;;;;;;;;;36.40;14.60;;;;;;5067109;28;20090;-62
2022/05/14 12:22:15;;;;;;;5.03;1.23;;;35.50;15.40;;;;;;5067478;28;19908;-63
2022/05/14 12:24:57;;;;;;;2.33;1.08;;;36.20;14.70;;;;;;5067505;28;20102;-62
2022/05/14 12:27:23;;;;;;;4.50;1.35;;;36.70;14.80;;;;;;5067231;28;20374;-62
2022/05/14 12:29:58;;;;;;;2.78;1.30;;;35.50;14.30;;;;;;5067053;28;20526;-64
2022/05/14 12:35:25;;;;;;;3.22;1.25;;;35.80;14.60;;;;;;5066928;28;20039;-64
2022/05/14 12:37:56;;;;;;;3.97;1.38;;;35.80;14.70;;;;;;5067126;28;20032;-64
2022/05/14 12:40:27;;;;;;;2.85;1.08;;;36.10;14.30;;;;;;5067147;28;20543;-64
2022/05/14 12:42:53;;;;;;;3.33;1.15;;;36.90;15.00;;;;;;5066734;28;20481;-63
2022/05/14 12:45:31;;;;;;;3.63;0.95;;;34.50;14.00;;;;;;5067516;28;20032;-64
2022/05/14 12:48:01;;;;;;;3.80;1.17;;;33.40;15.30;;;;;;5066666;28;20560;-63
2022/05/14 12:50:30;;;;;;;5.07;1.42;;;33.50;15.90;;;;;;5067015;28;20044;-64
2022/05/14 12:53:02;;;;;;;2.70;1.37;;;33.80;15.90;;;;;;5066851;28;20449;-63
2022/05/14 12:55:31;;;;;;;3.83;0.90;;;33.70;15.10;;;;;;5066755;28;20026;-64
2022/05/14 12:58:01;;;;;;;2.58;1.10;;;32.80;16.50;;;;;;5066706;28;20067;-63
2022/05/14 13:00:28;;;;;;;4.00;0.90;;;33.10;16.70;;;;;;5067036;28;20020;-62
2022/05/14 13:02:59;;;;;;;1.35;0.90;;;33.80;15.80;;;;;;5066918;28;20024;-64
2022/05/14 13:05:33;;;;;;;4.00;2.22;;;34.30;15.80;;;;;;5066988;28;20031;-64
2022/05/14 13:08:21;;;;;;;2.58;1.00;;;33.70;15.90;;;;;;5048869;28;20456;-64
2022/05/14 13:10:50;;;;;;;2.45;0.88;;;33.60;16.00;;;;;;5066815;28;20047;-63
2022/05/14 13:13:17;;;;;;;0.82;0.75;;;33.50;16.10;;;;;;5067327;28;20377;-62
2022/05/14 13:15:53;;;;;;;2.08;1.20;;;33.10;17.10;;;;;;5067081;28;20032;-62
2022/05/14 13:18:21;;;;;;;3.65;1.65;;;30.80;17.40;;;;;;5066605;28;20484;-61
2022/05/14 13:20:47;;;;;;;5.53;1.00;;;29.00;19.90;;;;;;5066758;28;20038;-62
2022/05/14 13:23:20;;;;;;;2.85;1.08;;;29.30;19.90;;;;;;5066895;28;20044;-62
2022/05/14 13:26:00;;;;;;;4.53;0.90;;;30.50;20.20;;;;;;5066639;28;20025;-61
2022/05/14 13:28:35;;;;;;;2.15;1.20;;;31.50;18.70;;;;;;5066542;28;20039;-62
2022/05/14 13:31:05;;;;;;;5.70;1.33;;;32.00;17.70;;;;;;5067500;28;20027;-61